Ethel, LA (70730)

9:34 PM CST on March 02, 2015 (GMT -0600)
Dunceath Acres | Change Station
CLOSE
Current Station
Personal Weather Station
Location: Ethel, LA
Elevation: 192 ft
Nearby Weather Stations
Active Advisory: Dense Fog Advisory

Elev 192 ft 30.77 °N, 91.20 °W | Updated 1 second ago

Rain
Rain
56.5 °F
Feels Like 56.5 °F
N
2.0
Wind Variable Wind from North
Gusts 4.0 mph

Today
High -- | Low -- °F
--% Chance of Precip.
Yesterday
High -- | Low -- °F
Precip. -- in
6:30 AM 6:03 PM
Waxing Gibbous, 94% visible
Pressure 30.20 in
Visibility 0.2 miles
Clouds
Dew Point 55 °F
Humidity 96%
Rainfall 1.19 in
Snow Depth Not available.
UV Not available.
Pollen 7.40 out of 12
Air Quality Not available.
Flu Activity Not available.
METAR KBTR 030253Z 29003KT 1/4SM FG VV002 14/14 A3020 RMK AO2 SLP227 T01440144 51006 RVRNO

More Conditions Fewer Conditions

Pressure 30.20 in
Visibility 0.2 miles
Clouds
Dew Point 55 °F
Humidity 96%
Rainfall 1.19 in
Snow Depth Not available.
UV Not available.
Pollen 7.40 out of 12
Air Quality Not available.
Flu Activity Not available.
METAR KBTR 030253Z 29003KT 1/4SM FG VV002 14/14 A3020 RMK AO2 SLP227 T01440144 51006 RVRNO

More Conditions Fewer Conditions

10-Day Weather Forecast

Almanac

Astronomy

Mar. 02, 2015 Rise Set
Actual Time
Civil Twilight
Nautical Twilight
Astronomical Twilight
Moon
Length of Visible Light
Length of Day
Tomorrow will be .
, % of the Moon is Illuminated

Today's Extremes

State Highs State Lows

Community

WunderPhotos

Upload Photos

1,802,060 photos uploaded!

WunderBlogs® & News

Nearby

Air Quality

  Air Quality AQ Index Pollutant
Not available.

Snow Depth

Station Depth Elevation

Earthquake Activity

City Distance Mag. Time & Date
Minimum magnitude displayed is 2.5.

Coastal Water Temperatures

Place Temperature

Nearby Weather Stations

Dense Fog Advisory
Statement as of 9:25 PM CST on March 02, 2015

... Dense fog advisory remains in effect until 9 am CST Tuesday...

* visibility... one quarter mile or less.

* Duration... tonight through mid morning Tuesday

* impacts... reduced visibilities on area roadways could cause
hazardous driving conditions through Tuesday morning.

Precautionary/preparedness actions...

A dense fog advisory means visibilities will frequently be
reduced to less than one quarter mile. If driving... slow down...
use your headlights... and leave plenty of distance ahead of you.